createdAt,value
2022-10-06T04:30:54.573Z,0.00
2022-10-06T04:31:54.583Z,0.00
2022-10-06T04:32:54.523Z,0.00
2022-10-06T04:33:54.494Z,0.00
2022-10-06T04:34:54.493Z,0.00
2022-10-06T04:35:54.510Z,0.00
2022-10-06T04:36:54.513Z,0.00
2022-10-06T04:37:54.452Z,0.00
2022-10-06T04:38:54.443Z,0.00
2022-10-06T04:39:54.431Z,0.00
2022-10-06T04:40:54.430Z,0.00
2022-10-06T04:41:54.437Z,0.00
2022-10-06T04:42:54.423Z,0.00
2022-10-06T04:43:54.385Z,0.00
2022-10-06T04:44:54.375Z,0.00
2022-10-06T04:45:54.384Z,0.00
2022-10-06T04:46:54.444Z,0.00
2022-10-06T04:47:54.344Z,0.00
2022-10-06T04:48:54.363Z,0.00
2022-10-06T04:49:54.325Z,0.00
2022-10-06T04:50:54.322Z,0.00
2022-10-06T04:51:54.328Z,0.00
2022-10-06T04:52:54.338Z,0.00
2022-10-06T04:53:54.286Z,0.00
2022-10-06T04:54:54.293Z,0.00
2022-10-06T04:55:54.268Z,0.00
2022-10-06T04:56:54.267Z,0.00
2022-10-06T04:57:54.235Z,0.00
2022-10-06T04:58:54.241Z,0.00
2022-10-06T04:59:54.219Z,0.00
2022-10-06T05:00:54.298Z,0.00
2022-10-06T05:01:54.247Z,0.00
2022-10-06T05:02:54.201Z,0.00
2022-10-06T05:03:54.178Z,0.00
2022-10-06T05:04:54.177Z,0.00
2022-10-06T05:05:54.158Z,0.00
2022-10-06T05:06:54.147Z,0.00
2022-10-06T05:07:54.153Z,0.00
2022-10-06T05:08:54.146Z,0.00
2022-10-06T05:09:54.112Z,0.00
2022-10-06T05:10:54.106Z,0.00
2022-10-06T05:11:54.121Z,0.00
2022-10-06T05:12:54.076Z,0.00
2022-10-06T05:13:54.072Z,0.00
2022-10-06T05:14:54.099Z,0.00
2022-10-06T05:15:54.054Z,0.00
2022-10-06T05:16:54.110Z,0.00
2022-10-06T05:17:54.028Z,0.00
2022-10-06T05:18:54.041Z,0.00
2022-10-06T05:19:54.006Z,0.00
2022-10-06T05:20:54.026Z,0.00
2022-10-06T05:21:53.987Z,0.00
2022-10-06T05:22:53.977Z,0.00
2022-10-06T05:23:53.964Z,0.00
2022-10-06T05:24:53.976Z,0.00
2022-10-06T05:25:53.948Z,0.00
2022-10-06T05:26:57.240Z,0.00
2022-10-06T05:27:55.056Z,0.00
2022-10-06T05:28:53.913Z,0.00
2022-10-06T05:29:53.906Z,0.00
2022-10-06T05:30:53.895Z,0.00
2022-10-06T05:31:53.919Z,0.00
2022-10-06T05:32:53.904Z,0.00
2022-10-06T05:33:53.864Z,0.00
2022-10-06T05:34:53.900Z,0.00
2022-10-06T05:35:53.839Z,0.00
2022-10-06T05:36:53.855Z,0.00
2022-10-06T05:37:53.820Z,0.00
2022-10-06T05:38:53.849Z,0.00
2022-10-06T05:39:53.800Z,0.00
2022-10-06T05:40:53.807Z,0.00
2022-10-06T05:41:53.771Z,0.00
2022-10-06T05:42:53.769Z,0.00
2022-10-06T05:43:53.753Z,0.00
2022-10-06T05:44:53.773Z,0.00
2022-10-06T05:45:53.795Z,0.00
2022-10-06T05:46:53.740Z,0.00
2022-10-06T05:47:53.705Z,0.00
2022-10-06T05:48:53.709Z,0.00
2022-10-06T05:49:53.687Z,0.00
2022-10-06T05:50:53.694Z,0.00
2022-10-06T05:51:53.660Z,0.00
2022-10-06T05:52:53.651Z,0.00
2022-10-06T05:53:53.689Z,0.00
2022-10-06T05:54:53.629Z,0.00
2022-10-06T05:55:53.618Z,0.00
2022-10-06T05:56:53.618Z,0.00
2022-10-06T05:57:53.599Z,0.00
2022-10-06T05:58:53.583Z,0.00
2022-10-06T05:59:53.599Z,0.00
2022-10-06T06:00:53.563Z,0.00
2022-10-06T06:01:53.671Z,0.00
2022-10-06T06:02:53.585Z,0.00
2022-10-06T06:03:53.529Z,5.62
2022-10-06T06:04:53.518Z,5.62
2022-10-06T06:05:53.513Z,5.62
2022-10-06T06:06:53.598Z,5.62
2022-10-06T06:07:53.491Z,5.62
2022-10-06T06:08:53.492Z,5.62
2022-10-06T06:09:53.467Z,5.62
2022-10-06T06:10:53.457Z,11.25
2022-10-06T06:11:53.464Z,11.25
2022-10-06T06:12:53.455Z,11.25
2022-10-06T06:13:53.422Z,11.25
2022-10-06T06:14:53.425Z,11.25
2022-10-06T06:15:53.397Z,16.88
2022-10-06T06:16:53.498Z,16.88
2022-10-06T06:17:53.406Z,16.88
2022-10-06T06:18:53.372Z,22.50
2022-10-06T06:19:53.385Z,22.50
2022-10-06T06:20:53.358Z,22.50
2022-10-06T06:21:53.340Z,22.50
2022-10-06T06:22:53.355Z,22.50
2022-10-06T06:23:53.318Z,22.50
2022-10-06T06:24:53.322Z,22.50
2022-10-06T06:25:53.304Z,28.12
2022-10-06T06:26:53.316Z,28.12
2022-10-06T06:27:53.280Z,28.12
2022-10-06T06:28:53.382Z,28.12
2022-10-06T06:29:53.282Z,33.75
2022-10-06T06:30:53.248Z,33.75
2022-10-06T06:31:53.253Z,33.75
2022-10-06T06:32:53.244Z,33.75
2022-10-06T06:33:53.228Z,33.75
2022-10-06T06:34:53.200Z,33.75
2022-10-06T06:35:53.190Z,39.38
2022-10-06T06:36:53.180Z,39.38
2022-10-06T06:37:53.167Z,39.38
2022-10-06T06:38:53.208Z,39.38
2022-10-06T06:39:53.173Z,39.38
2022-10-06T06:40:53.130Z,45.00
2022-10-06T06:41:53.123Z,45.00
2022-10-06T06:42:54.071Z,45.00
2022-10-06T06:43:53.097Z,45.00
2022-10-06T06:44:53.114Z,45.00
2022-10-06T06:45:53.132Z,45.00
2022-10-06T06:46:53.069Z,39.38
2022-10-06T06:47:53.049Z,45.00
2022-10-06T06:48:53.040Z,39.38
2022-10-06T06:49:53.046Z,33.75
2022-10-06T06:50:53.030Z,33.75
2022-10-06T06:51:53.007Z,28.12
2022-10-06T06:52:53.001Z,28.12
2022-10-06T06:53:52.995Z,28.12
2022-10-06T06:54:53.147Z,28.12
2022-10-06T06:55:52.968Z,28.12
2022-10-06T06:56:52.962Z,39.38
2022-10-06T06:57:52.962Z,45.00
2022-10-06T06:58:52.930Z,28.12
2022-10-06T06:59:52.919Z,28.12
2022-10-06T07:00:52.993Z,33.75
2022-10-06T07:01:53.038Z,33.75
2022-10-06T07:02:52.907Z,28.12
2022-10-06T07:03:57.517Z,28.12
2022-10-06T07:04:53.891Z,22.50
2022-10-06T07:05:52.864Z,22.50
2022-10-06T07:06:52.844Z,16.88
2022-10-06T07:07:52.834Z,22.50
2022-10-06T07:08:52.840Z,22.50
2022-10-06T07:09:52.836Z,16.88
2022-10-06T07:10:52.824Z,16.88
2022-10-06T07:11:52.801Z,16.88
2022-10-06T07:12:52.785Z,22.50
2022-10-06T07:13:52.777Z,22.50
2022-10-06T07:14:52.801Z,22.50
2022-10-06T07:15:52.793Z,16.88
2022-10-06T07:16:52.746Z,22.50
2022-10-06T07:17:52.727Z,22.50
2022-10-06T07:18:52.718Z,22.50
2022-10-06T07:19:52.750Z,22.50
2022-10-06T07:20:52.714Z,33.75
2022-10-06T07:21:52.683Z,22.50
2022-10-06T07:22:52.695Z,16.88
2022-10-06T07:23:52.665Z,16.88
2022-10-06T07:24:52.658Z,16.88
2022-10-06T07:25:52.644Z,16.88
2022-10-06T07:26:52.746Z,22.50
2022-10-06T07:27:52.625Z,16.88
2022-10-06T07:28:52.634Z,16.88
2022-10-06T07:29:52.924Z,16.88
2022-10-06T07:30:52.605Z,16.88
2022-10-06T07:31:52.580Z,22.50
2022-10-06T07:32:52.586Z,22.50
2022-10-06T07:33:52.560Z,22.50
2022-10-06T07:34:52.841Z,22.50
2022-10-06T07:35:52.573Z,22.50
2022-10-06T07:36:52.523Z,22.50
2022-10-06T07:37:52.518Z,28.12
2022-10-06T07:38:52.529Z,33.75
2022-10-06T07:39:52.493Z,28.12
2022-10-06T07:41:07.640Z,22.50
2022-10-06T07:41:53.491Z,22.50
2022-10-06T07:42:52.548Z,28.12
2022-10-06T07:43:52.452Z,33.75
2022-10-06T07:44:52.626Z,28.12
2022-10-06T07:45:52.489Z,33.75
2022-10-06T07:46:52.418Z,39.38
2022-10-06T07:47:52.411Z,33.75
2022-10-06T07:48:52.397Z,45.00
2022-10-06T07:49:52.388Z,28.12
2022-10-06T07:50:52.401Z,22.50
2022-10-06T07:51:52.372Z,33.75
2022-10-06T07:52:52.374Z,39.38
2022-10-06T07:53:52.342Z,45.00
2022-10-06T07:54:52.670Z,33.75
2022-10-06T07:55:52.320Z,50.62
2022-10-06T07:56:52.323Z,39.38
2022-10-06T07:57:52.296Z,56.25
2022-10-06T07:58:52.316Z,50.62
2022-10-06T07:59:52.300Z,56.25
2022-10-06T08:00:52.269Z,56.25
2022-10-06T08:01:52.281Z,39.38
2022-10-06T08:02:52.316Z,39.38
2022-10-06T08:03:52.233Z,39.38
2022-10-06T08:04:52.527Z,33.75
2022-10-06T08:05:52.212Z,39.38
2022-10-06T08:06:52.198Z,50.62
2022-10-06T08:07:52.194Z,50.62
2022-10-06T08:08:53.271Z,56.25
2022-10-06T08:09:52.205Z,50.62
2022-10-06T08:10:52.155Z,50.62
2022-10-06T08:11:52.151Z,50.62
2022-10-06T08:12:52.140Z,39.38
2022-10-06T08:13:52.341Z,45.00
2022-10-06T08:14:52.577Z,56.25
2022-10-06T08:15:52.210Z,56.25
2022-10-06T08:16:52.091Z,50.62
2022-10-06T08:17:52.083Z,50.62
2022-10-06T08:18:52.094Z,50.62
2022-10-06T08:19:52.063Z,50.62
2022-10-06T08:20:52.060Z,56.25
2022-10-06T08:21:52.047Z,56.25
2022-10-06T08:22:52.030Z,50.62
2022-10-06T08:23:52.018Z,50.62
2022-10-06T08:25:05.225Z,50.62
2022-10-06T08:25:53.001Z,56.25
2022-10-06T08:26:51.998Z,56.25
2022-10-06T08:27:53.663Z,56.25
2022-10-06T08:28:51.982Z,56.25
2022-10-06T08:29:51.954Z,56.25
2022-10-06T08:30:52.076Z,56.25
2022-10-06T08:31:52.050Z,61.88
2022-10-06T08:32:51.927Z,50.62
2022-10-06T08:33:51.950Z,50.62
2022-10-06T08:34:52.351Z,50.62
2022-10-06T08:35:51.892Z,61.88
2022-10-06T08:37:08.652Z,61.88
2022-10-06T08:37:52.864Z,45.00
2022-10-06T08:38:51.867Z,56.25
2022-10-06T08:39:51.918Z,61.88
2022-10-06T08:40:51.833Z,61.88
2022-10-06T08:41:51.841Z,50.62
2022-10-06T08:42:51.814Z,56.25
2022-10-06T08:43:51.809Z,56.25
2022-10-06T08:44:52.031Z,61.88
2022-10-06T08:45:51.972Z,61.88
2022-10-06T08:46:51.788Z,61.88
2022-10-06T08:47:51.756Z,61.88
2022-10-06T08:48:51.751Z,61.88
2022-10-06T08:49:52.401Z,61.88
2022-10-06T08:50:51.735Z,61.88
2022-10-06T08:51:51.714Z,61.88
2022-10-06T08:52:51.706Z,61.88
2022-10-06T08:53:51.696Z,61.88
2022-10-06T08:54:51.680Z,61.88
2022-10-06T08:55:51.696Z,61.88
2022-10-06T08:56:51.705Z,61.88
2022-10-06T08:57:51.653Z,61.88
2022-10-06T08:58:51.641Z,61.88
2022-10-06T08:59:51.630Z,61.88
2022-10-06T09:00:51.620Z,61.88
2022-10-06T09:01:51.782Z,67.50
2022-10-06T09:02:51.631Z,67.50
2022-10-06T09:03:51.604Z,67.50
2022-10-06T09:04:51.570Z,61.88
2022-10-06T09:05:51.565Z,61.88
2022-10-06T09:06:51.571Z,61.88
2022-10-06T09:07:51.560Z,61.88
2022-10-06T09:08:51.574Z,61.88
2022-10-06T09:09:51.546Z,61.88
2022-10-06T09:10:51.506Z,61.88
2022-10-06T09:11:51.506Z,61.88
2022-10-06T09:12:51.494Z,61.88
2022-10-06T09:13:51.510Z,61.88
2022-10-06T09:14:51.487Z,67.50
2022-10-06T09:15:51.526Z,67.50
2022-10-06T09:16:51.447Z,67.50
2022-10-06T09:17:51.433Z,67.50
2022-10-06T09:19:07.689Z,61.88
2022-10-06T09:19:52.721Z,61.88
2022-10-06T09:20:51.421Z,61.88
2022-10-06T09:21:51.452Z,67.50
2022-10-06T09:22:51.378Z,61.88
2022-10-06T09:23:51.387Z,61.88
2022-10-06T09:24:51.372Z,61.88
2022-10-06T09:25:51.345Z,61.88
2022-10-06T09:26:51.349Z,67.50
2022-10-06T09:27:51.330Z,67.50
2022-10-06T09:28:51.314Z,61.88
2022-10-06T09:29:51.338Z,56.25
2022-10-06T09:30:55.266Z,56.25
2022-10-06T09:31:51.510Z,56.25
2022-10-06T09:32:51.301Z,56.25
2022-10-06T09:33:51.263Z,56.25
2022-10-06T09:34:51.292Z,56.25
2022-10-06T09:35:51.242Z,56.25
2022-10-06T09:36:51.231Z,56.25
2022-10-06T09:37:51.218Z,56.25
2022-10-06T09:38:51.215Z,56.25
2022-10-06T09:39:51.214Z,56.25
2022-10-06T09:40:51.281Z,56.25
2022-10-06T09:41:51.199Z,56.25
2022-10-06T09:42:51.166Z,56.25
2022-10-06T09:43:51.157Z,56.25
2022-10-06T09:44:51.155Z,56.25
2022-10-06T09:45:51.143Z,56.25
2022-10-06T09:46:51.154Z,56.25
2022-10-06T09:47:51.121Z,56.25
2022-10-06T09:48:51.115Z,56.25
2022-10-06T09:49:51.115Z,56.25
2022-10-06T09:50:51.097Z,56.25
2022-10-06T09:51:51.076Z,56.25
2022-10-06T09:52:51.057Z,56.25
2022-10-06T09:53:51.046Z,56.25
2022-10-06T09:54:51.061Z,56.25
2022-10-06T09:55:51.041Z,56.25
2022-10-06T09:56:51.031Z,56.25
2022-10-06T09:57:51.008Z,56.25
2022-10-06T09:58:51.013Z,56.25
2022-10-06T09:59:50.979Z,56.25
2022-10-06T10:00:51.004Z,56.25
2022-10-06T10:01:50.960Z,56.25
2022-10-06T10:02:51.001Z,50.62
2022-10-06T10:04:08.391Z,56.25
2022-10-06T10:04:51.947Z,56.25
2022-10-06T10:05:50.939Z,56.25
2022-10-06T10:06:50.924Z,56.25
2022-10-06T10:07:50.896Z,56.25
2022-10-06T10:08:50.916Z,56.25
2022-10-06T10:09:50.899Z,56.25
2022-10-06T10:10:50.877Z,56.25
2022-10-06T10:11:50.864Z,56.25
2022-10-06T10:12:50.883Z,56.25
2022-10-06T10:13:50.837Z,56.25
2022-10-06T10:14:50.839Z,56.25
2022-10-06T10:15:50.885Z,56.25
2022-10-06T10:16:53.204Z,56.25
2022-10-06T10:17:50.808Z,56.25
2022-10-06T10:18:50.773Z,56.25
2022-10-06T10:19:50.761Z,56.25
2022-10-06T10:20:50.778Z,56.25
2022-10-06T10:21:50.735Z,56.25
2022-10-06T10:22:50.782Z,56.25
2022-10-06T10:23:50.720Z,56.25
2022-10-06T10:24:50.710Z,56.25
2022-10-06T10:25:50.697Z,56.25
2022-10-06T10:26:50.693Z,56.25
2022-10-06T10:27:50.679Z,56.25
2022-10-06T10:28:50.705Z,56.25
2022-10-06T10:29:50.693Z,56.25
2022-10-06T10:30:50.646Z,56.25
2022-10-06T10:31:50.706Z,56.25
2022-10-06T10:32:50.633Z,56.25
2022-10-06T10:34:05.054Z,56.25
2022-10-06T10:34:51.636Z,56.25
2022-10-06T10:35:50.604Z,56.25
2022-10-06T10:36:50.581Z,56.25
2022-10-06T10:37:50.568Z,56.25
2022-10-06T10:38:50.609Z,56.25
2022-10-06T10:39:50.545Z,56.25
2022-10-06T10:40:50.536Z,56.25
2022-10-06T10:41:50.526Z,56.25
2022-10-06T10:42:50.518Z,56.25
2022-10-06T10:43:50.510Z,56.25
2022-10-06T10:44:50.543Z,56.25
2022-10-06T10:45:50.494Z,56.25
2022-10-06T10:46:50.508Z,56.25
2022-10-06T10:47:50.474Z,56.25
2022-10-06T10:48:50.456Z,56.25
2022-10-06T10:49:50.448Z,56.25
2022-10-06T10:50:50.468Z,56.25
2022-10-06T10:51:50.419Z,56.25
2022-10-06T10:52:50.407Z,56.25
2022-10-06T10:53:50.406Z,56.25
2022-10-06T10:54:50.418Z,56.25
2022-10-06T10:55:50.398Z,56.25
2022-10-06T10:56:50.401Z,56.25
2022-10-06T10:57:50.413Z,56.25
2022-10-06T10:58:50.343Z,56.25
2022-10-06T10:59:50.333Z,61.88
2022-10-06T11:00:50.421Z,56.25
2022-10-06T11:01:50.435Z,56.25
2022-10-06T11:02:50.308Z,56.25
2022-10-06T11:03:50.318Z,56.25
2022-10-06T11:04:50.279Z,56.25
2022-10-06T11:05:50.301Z,56.25
2022-10-06T11:06:50.257Z,56.25
2022-10-06T11:07:50.269Z,56.25
2022-10-06T11:08:50.269Z,56.25
2022-10-06T11:09:50.246Z,56.25
2022-10-06T11:10:50.236Z,56.25
2022-10-06T11:11:52.361Z,56.25
2022-10-06T11:12:50.213Z,56.25
2022-10-06T11:13:50.226Z,56.25
2022-10-06T11:14:50.182Z,56.25
2022-10-06T11:15:50.180Z,56.25
2022-10-06T11:16:50.147Z,56.25
2022-10-06T11:17:50.144Z,56.25
2022-10-06T11:18:50.150Z,56.25
2022-10-06T11:19:50.118Z,56.25
2022-10-06T11:20:50.138Z,56.25
2022-10-06T11:21:50.109Z,56.25
2022-10-06T11:22:50.087Z,50.62
2022-10-06T11:23:50.077Z,50.62
2022-10-06T11:24:50.179Z,50.62
2022-10-06T11:25:50.055Z,50.62
2022-10-06T11:26:50.082Z,50.62
2022-10-06T11:27:50.055Z,50.62
2022-10-06T11:28:50.024Z,50.62
2022-10-06T11:29:50.020Z,50.62
2022-10-06T11:30:50.004Z,50.62
2022-10-06T11:31:50.036Z,50.62
2022-10-06T11:32:50.011Z,50.62
2022-10-06T11:33:49.983Z,50.62
2022-10-06T11:34:49.958Z,45.00
2022-10-06T11:35:49.942Z,45.00
2022-10-06T11:36:49.936Z,45.00
2022-10-06T11:37:49.931Z,45.00
2022-10-06T11:38:49.935Z,45.00
2022-10-06T11:39:49.961Z,45.00
2022-10-06T11:40:49.891Z,45.00
2022-10-06T11:41:49.885Z,45.00
2022-10-06T11:42:49.887Z,45.00
2022-10-06T11:43:49.859Z,45.00
2022-10-06T11:44:49.852Z,45.00
2022-10-06T11:45:49.924Z,45.00
2022-10-06T11:46:49.857Z,45.00
2022-10-06T11:47:49.814Z,45.00
2022-10-06T11:48:49.811Z,45.00
2022-10-06T11:49:49.794Z,45.00
2022-10-06T11:50:49.786Z,45.00
2022-10-06T11:51:49.819Z,45.00
2022-10-06T11:52:49.766Z,45.00
2022-10-06T11:53:49.758Z,45.00
2022-10-06T11:54:49.745Z,45.00
2022-10-06T11:55:49.737Z,45.00
2022-10-06T11:56:49.719Z,45.00
2022-10-06T11:57:49.747Z,45.00
2022-10-06T11:58:49.724Z,45.00
2022-10-06T11:59:49.687Z,45.00
2022-10-06T12:00:49.675Z,45.00
2022-10-06T12:01:49.800Z,45.00
2022-10-06T12:02:49.869Z,45.00
2022-10-06T12:03:49.684Z,45.00
2022-10-06T12:04:49.642Z,45.00
2022-10-06T12:05:56.093Z,45.00
2022-10-06T12:06:50.617Z,45.00
2022-10-06T12:07:49.652Z,45.00
2022-10-06T12:08:49.597Z,45.00
2022-10-06T12:09:52.439Z,45.00
2022-10-06T12:10:49.571Z,45.00
2022-10-06T12:11:49.607Z,45.00
2022-10-06T12:13:05.812Z,45.00
2022-10-06T12:14:44.479Z,45.00
2022-10-06T12:17:11.740Z,45.00
2022-10-06T12:17:50.504Z,39.38
2022-10-06T12:18:49.484Z,39.38
2022-10-06T12:19:49.477Z,39.38
2022-10-06T12:20:49.495Z,39.38
2022-10-06T12:21:49.455Z,39.38
2022-10-06T12:22:49.450Z,39.38
2022-10-06T12:23:49.454Z,39.38
2022-10-06T12:24:49.421Z,39.38
2022-10-06T12:25:49.415Z,39.38
2022-10-06T12:26:49.431Z,39.38
2022-10-06T12:27:49.392Z,39.38
2022-10-06T12:28:49.380Z,39.38
2022-10-06T12:29:49.377Z,33.75
2022-10-06T12:30:49.572Z,33.75
2022-10-06T12:31:49.346Z,33.75
2022-10-06T12:32:49.359Z,33.75
2022-10-06T12:33:49.328Z,33.75
2022-10-06T12:34:49.335Z,33.75
2022-10-06T12:35:49.337Z,33.75
2022-10-06T12:36:49.344Z,33.75
2022-10-06T12:37:53.954Z,33.75
2022-10-06T12:38:50.301Z,33.75
2022-10-06T12:39:49.260Z,39.38
2022-10-06T12:40:49.335Z,39.38
2022-10-06T12:41:49.244Z,39.38
2022-10-06T12:42:49.230Z,39.38
2022-10-06T12:43:49.218Z,39.38
2022-10-06T12:44:49.204Z,39.38
2022-10-06T12:45:49.303Z,39.38
2022-10-06T12:46:49.201Z,33.75
2022-10-06T12:47:49.181Z,33.75
2022-10-06T12:48:49.162Z,33.75
2022-10-06T12:49:49.153Z,33.75
2022-10-06T12:50:49.167Z,33.75
2022-10-06T12:51:49.553Z,33.75
2022-10-06T12:52:49.116Z,33.75
2022-10-06T12:53:49.150Z,33.75
2022-10-06T12:54:49.096Z,33.75
2022-10-06T12:55:49.091Z,33.75
2022-10-06T12:56:49.099Z,33.75
2022-10-06T12:57:49.063Z,33.75
2022-10-06T12:58:49.054Z,33.75
2022-10-06T12:59:49.061Z,33.75
2022-10-06T13:00:49.031Z,33.75
2022-10-06T13:01:49.045Z,28.12
2022-10-06T13:02:49.177Z,28.12
2022-10-06T13:03:49.000Z,28.12
2022-10-06T13:04:49.021Z,28.12
2022-10-06T13:05:48.987Z,28.12
2022-10-06T13:06:48.990Z,28.12
2022-10-06T13:07:48.971Z,28.12
2022-10-06T13:08:48.943Z,28.12
2022-10-06T13:09:48.931Z,28.12
2022-10-06T13:10:48.935Z,28.12
2022-10-06T13:11:48.946Z,28.12
2022-10-06T13:12:48.902Z,28.12
2022-10-06T13:13:48.920Z,28.12
2022-10-06T13:14:48.894Z,28.12
2022-10-06T13:15:48.863Z,28.12
2022-10-06T13:16:48.929Z,28.12
2022-10-06T13:17:48.886Z,28.12
2022-10-06T13:18:48.861Z,28.12
2022-10-06T13:19:48.852Z,28.12
2022-10-06T13:20:48.817Z,28.12
2022-10-06T13:21:48.809Z,28.12
2022-10-06T13:22:48.792Z,28.12
2022-10-06T13:23:48.796Z,28.12
2022-10-06T13:24:48.779Z,28.12
2022-10-06T13:25:48.758Z,28.12
2022-10-06T13:26:48.831Z,28.12
2022-10-06T13:27:48.733Z,28.12
2022-10-06T13:28:48.730Z,28.12
2022-10-06T13:29:48.718Z,28.12
2022-10-06T13:30:48.816Z,28.12
2022-10-06T13:31:51.884Z,28.12
2022-10-06T13:32:48.695Z,28.12
2022-10-06T13:33:48.709Z,28.12
2022-10-06T13:34:48.681Z,28.12
2022-10-06T13:35:48.650Z,28.12
2022-10-06T13:36:48.680Z,28.12
2022-10-06T13:37:48.650Z,28.12
2022-10-06T13:38:48.622Z,28.12
2022-10-06T13:39:48.612Z,28.12
2022-10-06T13:40:48.604Z,28.12
2022-10-06T13:41:48.591Z,28.12
2022-10-06T13:42:48.605Z,22.50
2022-10-06T13:43:48.622Z,28.12
2022-10-06T13:44:48.559Z,28.12
2022-10-06T13:45:48.645Z,22.50
2022-10-06T13:46:48.535Z,22.50
2022-10-06T13:47:48.524Z,22.50
2022-10-06T13:48:48.526Z,22.50
2022-10-06T13:49:48.527Z,22.50
2022-10-06T13:50:48.583Z,22.50
2022-10-06T13:51:48.520Z,22.50
2022-10-06T13:52:48.479Z,22.50
2022-10-06T13:53:48.461Z,22.50
2022-10-06T13:54:48.499Z,22.50
2022-10-06T13:55:48.448Z,22.50
2022-10-06T13:56:48.436Z,16.88
2022-10-06T13:57:48.421Z,16.88
2022-10-06T13:58:48.434Z,11.25
2022-10-06T13:59:48.395Z,11.25
2022-10-06T14:00:48.404Z,11.25
2022-10-06T14:01:48.495Z,5.62
2022-10-06T14:02:48.463Z,5.62
2022-10-06T14:03:48.381Z,5.62
2022-10-06T14:04:48.366Z,5.62
2022-10-06T14:05:48.331Z,5.62
2022-10-06T14:06:48.382Z,5.62
2022-10-06T14:07:48.320Z,5.62
2022-10-06T14:08:48.319Z,5.62
2022-10-06T14:09:48.294Z,5.62
2022-10-06T14:10:48.304Z,5.62
2022-10-06T14:11:48.306Z,5.62
2022-10-06T14:12:48.261Z,5.62
2022-10-06T14:13:48.263Z,5.62
2022-10-06T14:14:48.258Z,5.62
2022-10-06T14:15:48.315Z,5.62
2022-10-06T14:16:48.235Z,5.62
2022-10-06T14:17:48.204Z,5.62
2022-10-06T14:18:48.269Z,5.62
2022-10-06T14:19:48.192Z,5.62
2022-10-06T14:20:48.191Z,5.62
2022-10-06T14:21:48.226Z,5.62
2022-10-06T14:22:48.167Z,5.62
2022-10-06T14:23:48.161Z,5.62
2022-10-06T14:24:48.163Z,5.62
2022-10-06T14:25:48.121Z,5.62
2022-10-06T14:26:48.104Z,11.25
2022-10-06T14:27:48.097Z,11.25
2022-10-06T14:28:48.083Z,11.25
2022-10-06T14:29:48.097Z,11.25
2022-10-06T14:30:48.097Z,11.25
2022-10-06T14:31:48.179Z,11.25
2022-10-06T14:32:48.056Z,5.62
2022-10-06T14:33:48.028Z,5.62
2022-10-06T14:34:48.019Z,5.62
2022-10-06T14:35:48.007Z,5.62
2022-10-06T14:36:48.041Z,5.62
2022-10-06T14:37:47.984Z,5.62
2022-10-06T14:38:48.003Z,5.62
2022-10-06T14:39:47.968Z,5.62
2022-10-06T14:40:47.954Z,5.62
2022-10-06T14:41:48.091Z,5.62
2022-10-06T14:43:47.924Z,5.62
2022-10-06T14:44:47.926Z,5.62
2022-10-06T14:45:47.897Z,5.62
2022-10-06T14:46:47.972Z,0.00
2022-10-06T14:47:47.879Z,0.00
2022-10-06T14:48:47.885Z,0.00
2022-10-06T14:49:47.879Z,0.00
2022-10-06T14:50:47.846Z,0.00
2022-10-06T14:51:47.840Z,0.00
2022-10-06T14:52:47.829Z,0.00
2022-10-06T14:53:47.833Z,0.00
2022-10-06T14:54:47.829Z,0.00
2022-10-06T14:55:47.797Z,0.00
2022-10-06T14:56:47.804Z,0.00
2022-10-06T14:57:47.771Z,0.00
2022-10-06T14:58:47.760Z,0.00
2022-10-06T14:59:47.749Z,0.00
2022-10-06T15:00:47.754Z,0.00
2022-10-06T15:01:47.745Z,0.00
2022-10-06T15:02:47.825Z,0.00
2022-10-06T15:03:49.343Z,0.00
2022-10-06T15:04:47.719Z,0.00
2022-10-06T15:05:47.699Z,0.00
2022-10-06T15:06:47.693Z,0.00
2022-10-06T15:07:47.667Z,0.00
2022-10-06T15:08:47.654Z,0.00
2022-10-06T15:09:47.661Z,0.00
2022-10-06T15:10:47.649Z,0.00
2022-10-06T15:11:47.620Z,0.00
2022-10-06T15:12:47.626Z,0.00
2022-10-06T15:13:47.600Z,0.00
2022-10-06T15:14:47.603Z,0.00
2022-10-06T15:15:47.643Z,0.00
2022-10-06T15:16:47.567Z,0.00
2022-10-06T15:17:47.557Z,0.00
2022-10-06T15:18:47.557Z,0.00
2022-10-06T15:19:47.547Z,0.00
2022-10-06T15:20:47.544Z,0.00
2022-10-06T15:21:47.519Z,0.00
2022-10-06T15:22:47.511Z,0.00
2022-10-06T15:23:47.497Z,0.00
2022-10-06T15:24:47.512Z,0.00
2022-10-06T15:25:47.472Z,0.00
2022-10-06T15:26:47.508Z,0.00
2022-10-06T15:27:47.451Z,0.00
2022-10-06T15:28:47.500Z,0.00
2022-10-06T15:29:47.467Z,0.00
2022-10-06T15:30:47.434Z,0.00
2022-10-06T15:31:47.407Z,0.00
2022-10-06T15:32:47.394Z,0.00
2022-10-06T15:33:49.854Z,0.00
2022-10-06T15:34:48.390Z,0.00
2022-10-06T15:35:47.361Z,0.00
2022-10-06T15:36:47.357Z,0.00
2022-10-06T15:37:47.354Z,0.00
2022-10-06T15:38:47.328Z,0.00
2022-10-06T15:39:47.348Z,0.00
2022-10-06T15:40:47.310Z,0.00
2022-10-06T15:41:47.299Z,0.00
2022-10-06T15:42:47.302Z,0.00
2022-10-06T15:43:47.304Z,0.00
2022-10-06T15:44:47.264Z,0.00
2022-10-06T15:45:47.276Z,0.00
2022-10-06T15:46:47.404Z,0.00
2022-10-06T15:47:47.232Z,0.00
2022-10-06T15:48:47.235Z,0.00
2022-10-06T15:49:47.229Z,0.00
2022-10-06T15:50:47.198Z,0.00
2022-10-06T15:51:47.191Z,0.00
2022-10-06T15:52:47.178Z,0.00
2022-10-06T15:53:47.165Z,0.00
2022-10-06T15:54:47.185Z,0.00
2022-10-06T15:55:47.147Z,0.00
2022-10-06T15:56:47.131Z,0.00
2022-10-06T15:57:47.127Z,0.00
2022-10-06T15:58:47.130Z,0.00
2022-10-06T15:59:47.127Z,0.00
2022-10-06T16:00:47.103Z,0.00
2022-10-06T16:01:47.533Z,0.00
2022-10-06T16:02:47.263Z,0.00
2022-10-06T16:03:47.065Z,0.00
2022-10-06T16:04:47.050Z,0.00
2022-10-06T16:05:47.050Z,0.00
2022-10-06T16:06:47.031Z,0.00
2022-10-06T16:07:47.050Z,0.00
2022-10-06T16:08:47.012Z,0.00
2022-10-06T16:09:46.994Z,0.00
2022-10-06T16:10:46.986Z,0.00
2022-10-06T16:11:46.993Z,0.00
2022-10-06T16:12:46.995Z,0.00
2022-10-06T16:13:46.953Z,0.00
2022-10-06T16:14:47.011Z,0.00
2022-10-06T16:15:47.012Z,0.00
2022-10-06T16:16:46.933Z,0.00
2022-10-06T16:17:46.946Z,0.00
2022-10-06T16:18:46.898Z,0.00
2022-10-06T16:19:46.891Z,0.00
2022-10-06T16:20:46.882Z,0.00
2022-10-06T16:21:46.876Z,0.00
2022-10-06T16:22:46.879Z,0.00
2022-10-06T16:23:46.863Z,0.00
2022-10-06T16:24:46.844Z,0.00
2022-10-06T16:25:46.828Z,0.00
2022-10-06T16:26:46.822Z,0.00
2022-10-06T16:27:46.809Z,0.00
2022-10-06T16:28:46.832Z,0.00
2022-10-06T16:29:46.792Z,0.00
2022-10-06T16:30:46.794Z,0.00
2022-10-06T16:31:46.827Z,0.00
2022-10-06T16:32:46.756Z,0.00
2022-10-06T16:33:46.744Z,0.00
2022-10-06T16:34:46.731Z,0.00
2022-10-06T16:35:46.737Z,0.00
2022-10-06T16:36:46.705Z,0.00
2022-10-06T16:37:46.726Z,0.00
2022-10-06T16:38:46.687Z,0.00
2022-10-06T16:39:46.696Z,0.00
2022-10-06T16:40:46.667Z,0.00
2022-10-06T16:41:46.672Z,0.00
2022-10-06T16:42:46.666Z,0.00
2022-10-06T16:43:46.632Z,0.00
2022-10-06T16:44:46.623Z,0.00
2022-10-06T16:45:46.612Z,0.00
2022-10-06T16:46:46.867Z,0.00
2022-10-06T16:47:46.622Z,0.00
2022-10-06T16:48:46.578Z,0.00
2022-10-06T16:49:46.590Z,0.00
2022-10-06T16:50:46.553Z,0.00
2022-10-06T16:51:46.559Z,0.00
2022-10-06T16:52:46.570Z,0.00
2022-10-06T16:53:46.565Z,0.00
2022-10-06T16:54:46.515Z,0.00
2022-10-06T16:55:46.501Z,0.00
2022-10-06T16:56:46.497Z,0.00
2022-10-06T16:57:46.479Z,0.00
2022-10-06T16:58:46.495Z,0.00
2022-10-06T16:59:47.098Z,0.00
2022-10-06T17:00:46.488Z,0.00
2022-10-06T17:01:46.474Z,0.00
2022-10-06T17:02:46.446Z,0.00
2022-10-06T17:03:46.437Z,0.00
2022-10-06T17:04:46.418Z,0.00
2022-10-06T17:05:46.411Z,0.00
2022-10-06T17:06:46.379Z,0.00
2022-10-06T17:07:46.372Z,0.00
2022-10-06T17:08:46.393Z,0.00
2022-10-06T17:10:15.308Z,0.00
2022-10-06T17:10:47.336Z,0.00
2022-10-06T17:11:46.349Z,0.00
2022-10-06T17:12:46.316Z,0.00
2022-10-06T17:13:46.310Z,0.00
2022-10-06T17:14:46.314Z,0.00
2022-10-06T17:15:46.317Z,0.00
2022-10-06T17:16:46.393Z,0.00
2022-10-06T17:17:46.270Z,0.00
2022-10-06T17:18:46.292Z,0.00
2022-10-06T17:19:46.241Z,0.00
2022-10-06T17:20:46.248Z,0.00
2022-10-06T17:21:48.315Z,0.00
2022-10-06T17:22:46.213Z,0.00
2022-10-06T17:23:46.215Z,0.00
2022-10-06T17:24:46.207Z,0.00
2022-10-06T17:25:46.177Z,0.00
2022-10-06T17:26:46.192Z,0.00
2022-10-06T17:27:46.157Z,0.00
2022-10-06T17:28:46.153Z,0.00
2022-10-06T17:29:46.192Z,0.00
2022-10-06T17:30:46.140Z,0.00
2022-10-06T17:31:46.172Z,0.00
2022-10-06T17:32:46.127Z,0.00
2022-10-06T17:33:46.094Z,0.00
2022-10-06T17:34:46.117Z,0.00
2022-10-06T17:35:46.084Z,0.00